Time;durP1;ratioP1;P1;durP2;ratioP2;P2;SDS_P1;SDS_P2;PMS_P1;PMS_P2;Temp;Humidity;BMP_temperature;BMP_pressure;BME280_temperature;BME280_humidity;BME280_pressure;Samples;Min_cycle;Max_cycle;Signal;HPM_P1;HPM_P2
2022/06/01 00:02:15;;;;;;;11.80;9.18;;;12.20;99.90;;;;;;5071740;28;20477;-70
2022/06/01 00:04:41;;;;;;;11.23;10.02;;;;;;;;;;5055215;28;20114;-69
2022/06/01 00:07:06;;;;;;;12.88;9.77;;;12.30;99.90;;;;;;5072579;28;20479;-70
2022/06/01 00:09:32;;;;;;;12.75;9.60;;;12.30;99.90;;;;;;5037488;28;20085;-70
2022/06/01 00:11:58;;;;;;;12.77;9.25;;;;;;;;;;5055257;28;20045;-70
2022/06/01 00:14:24;;;;;;;15.27;9.45;;;12.30;99.90;;;;;;5054669;28;20033;-69
2022/06/01 00:16:55;;;;;;;12.27;9.15;;;;;;;;;;5054520;28;20082;-69
2022/06/01 00:19:20;;;;;;;12.38;9.75;;;12.40;99.90;;;;;;5071774;28;20036;-69
2022/06/01 00:24:30;;;;;;;11.63;10.40;;;12.20;99.90;;;;;;5054707;28;20502;-69
2022/06/01 00:26:56;;;;;;;14.65;10.27;;;;;;;;;;5072858;28;20036;-68
2022/06/01 00:29:21;;;;;;;14.65;10.55;;;12.10;99.90;;;;;;5054022;28;20512;-68
2022/06/01 00:31:47;;;;;;;17.08;10.32;;;12.20;99.90;;;;;;5055011;28;20073;-68
2022/06/01 00:34:13;;;;;;;12.35;9.52;;;;;;;;;;5073047;28;20036;-68
2022/06/01 00:36:39;;;;;;;12.40;10.13;;;12.10;99.90;;;;;;5054353;28;20496;-68
2022/06/01 00:39:04;;;;;;;10.82;9.73;;;12.10;99.90;;;;;;5054465;28;20047;-68
2022/06/01 00:41:30;;;;;;;14.55;10.68;;;12.20;99.90;;;;;;5072252;28;20043;-68
2022/06/01 00:43:56;;;;;;;12.07;10.75;;;12.20;99.90;;;;;;5054686;28;20036;-68
2022/06/01 00:46:24;;;;;;;15.68;10.93;;;12.20;99.90;;;;;;5054967;28;20094;-69
2022/06/01 00:48:54;;;;;;;12.93;10.90;;;12.20;99.90;;;;;;5071315;28;20085;-68
2022/06/01 00:51:24;;;;;;;13.68;9.88;;;12.30;99.90;;;;;;5053159;28;20044;-69
2022/06/01 00:53:52;;;;;;;13.73;11.35;;;12.30;99.90;;;;;;5072215;28;20064;-68
2022/06/01 00:56:34;;;;;;;13.93;11.45;;;12.20;99.90;;;;;;5054174;28;20406;-68
2022/06/01 00:59:03;;;;;;;14.17;10.47;;;12.20;99.90;;;;;;5053842;28;20044;-68
2022/06/01 01:01:30;;;;;;;11.88;10.13;;;12.10;99.90;;;;;;5054054;28;20405;-69
2022/06/01 01:03:57;;;;;;;14.90;10.95;;;12.10;99.90;;;;;;5053894;28;20041;-68
2022/06/01 01:06:32;;;;;;;13.27;11.77;;;12.20;99.90;;;;;;5072079;28;20097;-68
2022/06/01 01:08:59;;;;;;;13.52;11.00;;;12.10;99.90;;;;;;5053996;28;20080;-69
2022/06/01 01:11:30;;;;;;;15.50;12.07;;;12.30;99.90;;;;;;5054036;28;20127;-69
2022/06/01 01:13:58;;;;;;;15.45;12.15;;;12.10;99.90;;;;;;5054306;28;20682;-69
2022/06/01 01:16:24;;;;;;;17.40;12.07;;;;;;;;;;5037028;28;20082;-68
2022/06/01 01:18:52;;;;;;;15.95;11.98;;;12.00;99.90;;;;;;5053635;28;20040;-68
2022/06/01 01:21:28;;;;;;;13.00;11.02;;;12.30;99.90;;;;;;5071311;28;20124;-68
2022/06/01 01:24:22;;;;;;;16.38;12.48;;;12.10;99.90;;;;;;5037394;28;20033;-68
2022/06/01 01:26:50;;;;;;;16.70;12.48;;;12.10;99.90;;;;;;5071568;28;20502;-68
2022/06/01 01:29:16;;;;;;;14.82;12.05;;;;;;;;;;5052848;28;20047;-68
2022/06/01 01:31:45;;;;;;;15.15;12.20;;;12.10;99.90;;;;;;5071829;28;20052;-68
2022/06/01 01:34:10;;;;;;;16.33;13.43;;;12.10;99.90;;;;;;5053522;28;20036;-68
2022/06/01 01:36:45;;;;;;;14.20;12.68;;;12.00;99.90;;;;;;5071347;28;20041;-68
2022/06/01 01:39:13;;;;;;;22.38;13.25;;;11.90;99.90;;;;;;5053062;28;20040;-68
2022/06/01 01:41:48;;;;;;;15.63;13.45;;;11.90;99.90;;;;;;5053381;28;20048;-67
2022/06/01 01:44:23;;;;;;;13.85;11.80;;;11.80;99.90;;;;;;5071649;28;20033;-68
2022/06/01 01:46:49;;;;;;;17.38;13.15;;;11.80;99.90;;;;;;5071210;28;20105;-68
2022/06/01 01:49:17;;;;;;;14.18;12.65;;;11.90;99.90;;;;;;5052539;28;20048;-68
2022/06/01 01:51:44;;;;;;;14.57;13.05;;;11.90;99.90;;;;;;5071828;28;20119;-69
2022/06/01 01:54:21;;;;;;;17.30;12.63;;;11.80;99.90;;;;;;5053674;28;20064;-68
2022/06/01 01:57:06;;;;;;;16.60;12.65;;;11.90;99.90;;;;;;5071415;28;20098;-68
2022/06/01 01:59:50;;;;;;;19.50;13.23;;;11.70;99.90;;;;;;5054858;28;20119;-68
2022/06/01 02:02:28;;;;;;;17.17;13.77;;;11.80;99.90;;;;;;5057407;28;20040;-68
2022/06/01 02:08:06;;;;;;;18.63;14.30;;;11.60;99.90;;;;;;5075043;28;20106;-68
2022/06/01 02:13:17;;;;;;;19.00;13.02;;;11.70;99.90;;;;;;5075061;28;20094;-68
2022/06/01 02:15:45;;;;;;;14.30;12.80;;;11.60;99.90;;;;;;5056798;28;20036;-68
2022/06/01 02:18:18;;;;;;;16.33;13.50;;;11.60;99.90;;;;;;5073586;28;20040;-68
2022/06/01 02:21:02;;;;;;;16.48;12.73;;;11.40;99.90;;;;;;5039697;28;20066;-68
2022/06/01 02:23:31;;;;;;;14.23;12.25;;;11.40;99.90;;;;;;5040241;28;20040;-68
2022/06/01 02:25:59;;;;;;;14.57;12.48;;;11.20;99.90;;;;;;5073443;28;20467;-68
2022/06/01 02:28:26;;;;;;;14.35;12.85;;;11.30;99.90;;;;;;5056788;28;20048;-68
2022/06/01 02:30:53;;;;;;;17.17;13.15;;;11.30;99.90;;;;;;5039274;28;20040;-68
2022/06/01 02:33:23;;;;;;;16.73;13.82;;;11.30;99.90;;;;;;5074354;28;20529;-69
2022/06/01 02:35:53;;;;;;;16.55;13.68;;;11.20;99.90;;;;;;5040053;28;20044;-68
2022/06/01 02:38:25;;;;;;;16.00;13.60;;;11.20;99.90;;;;;;5056504;28;20043;-68
2022/06/01 02:40:51;;;;;;;15.35;13.73;;;;;;;;;;5073747;28;20079;-68
2022/06/01 02:43:17;;;;;;;17.02;14.00;;;;;;;;;;5056429;28;20410;-68
2022/06/01 02:45:43;;;;;;;19.83;13.90;;;;;;;;;;5056398;28;20128;-68
2022/06/01 02:48:09;;;;;;;17.30;12.75;;;11.00;99.90;;;;;;5056297;28;20490;-68
2022/06/01 02:50:36;;;;;;;14.05;12.25;;;11.20;99.90;;;;;;5055935;28;20075;-68
2022/06/01 02:53:02;;;;;;;15.23;13.63;;;11.10;99.90;;;;;;5074755;28;20460;-68
2022/06/01 02:55:30;;;;;;;17.15;12.93;;;11.20;99.90;;;;;;5074394;28;20048;-68
2022/06/01 02:57:57;;;;;;;17.13;14.73;;;11.10;99.90;;;;;;5056676;28;20383;-68
2022/06/01 03:00:26;;;;;;;15.45;13.77;;;11.10;99.90;;;;;;5039096;28;20047;-68
2022/06/01 03:02:57;;;;;;;17.83;15.30;;;10.90;99.90;;;;;;5056144;28;20048;-68
2022/06/01 03:05:25;;;;;;;17.67;14.18;;;11.30;99.90;;;;;;5055943;28;20060;-69
2022/06/01 03:07:52;;;;;;;15.95;13.93;;;;;;;;;;5055913;28;20045;-68
2022/06/01 03:10:18;;;;;;;16.52;14.32;;;;;;;;;;5054782;28;20048;-68
2022/06/01 03:12:44;;;;;;;15.00;13.10;;;11.10;99.90;;;;;;5055993;28;20051;-69
2022/06/01 03:15:12;;;;;;;15.95;13.93;;;11.10;99.90;;;;;;5073924;28;20486;-68
2022/06/01 03:17:38;;;;;;;15.57;13.75;;;10.90;99.90;;;;;;5056193;28;20044;-69
2022/06/01 03:20:08;;;;;;;16.65;14.52;;;10.80;99.90;;;;;;5038490;28;20059;-69
2022/06/01 03:22:35;;;;;;;19.30;14.77;;;11.20;99.90;;;;;;5056018;28;20079;-68
2022/06/01 03:25:02;;;;;;;19.10;14.15;;;11.10;99.90;;;;;;5055760;28;20040;-68
2022/06/01 03:27:28;;;;;;;16.52;14.38;;;;;;;;;;5055504;28;20052;-68
2022/06/01 03:29:54;;;;;;;17.35;14.05;;;;;;;;;;5038286;28;20040;-69
2022/06/01 03:32:21;;;;;;;17.35;15.10;;;;;;;;;;5055689;28;20052;-68
2022/06/01 03:34:47;;;;;;;17.45;13.82;;;11.10;99.90;;;;;;5073461;28;20047;-68
2022/06/01 03:37:12;;;;;;;15.88;13.95;;;11.40;99.90;;;;;;5073265;28;20402;-68
2022/06/01 03:39:38;;;;;;;17.55;14.98;;;;;;;;;;5072600;28;20032;-68
2022/06/01 03:42:05;;;;;;;16.25;14.38;;;;;;;;;;5055230;28;20040;-69
2022/06/01 03:47:15;;;;;;;17.92;15.38;;;;;;;;;;5072959;28;20048;-69
2022/06/01 03:49:42;;;;;;;19.63;14.80;;;;;;;;;;5054438;28;20127;-69
2022/06/01 03:52:09;;;;;;;19.25;14.65;;;11.40;99.90;;;;;;5073083;28;20044;-69
2022/06/01 03:54:36;;;;;;;17.73;14.57;;;11.40;99.90;;;;;;5071783;28;20087;-70
2022/06/01 03:57:02;;;;;;;17.35;14.38;;;11.50;99.90;;;;;;5038409;28;20044;-70
2022/06/01 03:59:30;;;;;;;20.05;15.57;;;11.50;99.90;;;;;;5054316;28;20529;-70
2022/06/01 04:01:56;;;;;;;21.58;15.82;;;;;;;;;;5055113;28;20036;-70
2022/06/01 04:04:22;;;;;;;17.95;15.60;;;;;;;;;;5038485;28;20517;-70
2022/06/01 04:06:48;;;;;;;20.65;15.95;;;;;;;;;;5054998;28;20480;-72
2022/06/01 04:09:13;;;;;;;17.92;16.00;;;11.60;99.90;;;;;;5071862;28;20119;-69
2022/06/01 04:11:39;;;;;;;18.13;15.77;;;11.30;99.90;;;;;;5054749;28;20032;-70
2022/06/01 04:14:05;;;;;;;19.25;15.35;;;;;;;;;;5054692;28;20044;-70
2022/06/01 04:16:30;;;;;;;19.73;14.45;;;11.50;99.90;;;;;;5072372;28;20421;-70
2022/06/01 04:18:56;;;;;;;19.67;15.93;;;;;;;;;;5072086;28;20035;-69
2022/06/01 04:21:24;;;;;;;17.10;15.07;;;11.80;99.90;;;;;;5054150;28;20041;-68
2022/06/01 04:23:51;;;;;;;19.25;16.65;;;11.80;99.90;;;;;;5053980;28;20040;-68
2022/06/01 04:26:17;;;;;;;18.05;14.95;;;;;;;;;;5054416;28;20037;-68
2022/06/01 04:28:46;;;;;;;18.83;15.60;;;11.80;99.90;;;;;;5072352;28;20418;-68
2022/06/01 04:31:12;;;;;;;17.00;15.20;;;11.70;99.90;;;;;;5071636;28;20044;-69
2022/06/01 04:33:40;;;;;;;19.48;15.75;;;11.60;99.90;;;;;;5072262;28;20123;-68
2022/06/01 04:36:06;;;;;;;18.55;15.70;;;11.60;99.90;;;;;;5054117;28;20105;-68
2022/06/01 04:38:32;;;;;;;17.33;14.13;;;;;;;;;;5054344;28;20120;-68
2022/06/01 04:40:58;;;;;;;18.15;15.35;;;;;;;;;;5053496;28;20525;-68
2022/06/01 04:43:23;;;;;;;16.38;14.52;;;11.70;99.90;;;;;;5072229;28;20125;-68
2022/06/01 04:45:53;;;;;;;17.95;14.98;;;11.50;99.90;;;;;;5072157;28;20486;-68
2022/06/01 04:48:19;;;;;;;19.55;15.43;;;;;;;;;;5053901;28;20049;-68
2022/06/01 04:50:45;;;;;;;19.20;15.30;;;11.40;99.90;;;;;;5053366;28;20037;-68
2022/06/01 04:53:13;;;;;;;23.27;16.35;;;11.40;99.90;;;;;;5037524;28;20527;-68
2022/06/01 04:55:40;;;;;;;15.77;14.05;;;11.50;99.90;;;;;;5054107;28;20041;-68
2022/06/01 04:58:06;;;;;;;18.00;15.13;;;;;;;;;;5053805;28;20037;-68
2022/06/01 05:00:33;;;;;;;20.27;15.70;;;11.50;99.90;;;;;;5053149;28;20041;-68
2022/06/01 05:02:59;;;;;;;17.75;14.18;;;11.30;99.90;;;;;;5071820;28;20040;-68
2022/06/01 05:05:25;;;;;;;17.88;14.80;;;;;;;;;;5053738;28;20045;-68
2022/06/01 05:07:51;;;;;;;17.15;14.20;;;;;;;;;;5072009;28;20051;-68
2022/06/01 05:10:17;;;;;;;17.17;13.88;;;;;;;;;;5053237;28;20456;-68
2022/06/01 05:12:43;;;;;;;17.48;14.50;;;;;;;;;;5071915;28;20041;-69
2022/06/01 05:15:10;;;;;;;19.50;16.27;;;;;;;;;;5053711;28;20044;-68
2022/06/01 05:17:35;;;;;;;16.83;15.07;;;;;;;;;;5071581;28;20502;-68
2022/06/01 05:20:02;;;;;;;17.42;14.90;;;;;;;;;;5070825;28;20037;-68
2022/06/01 05:22:28;;;;;;;16.95;14.35;;;;;;;;;;5049459;28;20040;-67
2022/06/01 05:24:54;;;;;;;20.38;16.40;;;11.30;99.90;;;;;;5071467;28;20037;-68
2022/06/01 05:27:19;;;;;;;17.83;15.05;;;11.40;99.90;;;;;;5053545;28;20502;-68
2022/06/01 05:29:46;;;;;;;17.75;15.20;;;;;;;;;;5052734;28;20106;-68
2022/06/01 05:32:12;;;;;;;19.05;14.88;;;;;;;;;;5071248;28;20044;-68
2022/06/01 05:34:38;;;;;;;19.15;15.25;;;;;;;;;;5056182;28;20185;-68
2022/06/01 05:37:04;;;;;;;18.48;14.93;;;11.70;99.90;;;;;;5057260;28;20550;-68
2022/06/01 05:39:30;;;;;;;18.15;15.90;;;;;;;;;;5057055;28;20174;-69
2022/06/01 05:41:59;;;;;;;18.38;15.43;;;11.70;99.90;;;;;;5075807;28;20036;-69
2022/06/01 05:44:24;;;;;;;15.85;14.15;;;11.70;99.90;;;;;;5041538;28;20032;-69
2022/06/01 05:46:58;;;;;;;187.10;22.70;;;11.80;99.90;;;;;;5075463;28;20042;-69
2022/06/01 05:49:24;;;;;;;33.08;15.30;;;11.80;99.90;;;;;;5074867;28;20070;-69
2022/06/01 05:51:50;;;;;;;25.70;16.35;;;11.90;99.90;;;;;;5057562;28;20041;-68
2022/06/01 05:54:16;;;;;;;19.98;13.80;;;;;;;;;;5049476;28;20040;-68
2022/06/01 05:56:42;;;;;;;14.95;12.50;;;;;;;;;;5061475;28;20095;-68
2022/06/01 05:59:08;;;;;;;15.60;11.90;;;;;;;;;;5065360;28;20043;-68
2022/06/01 06:01:34;;;;;;;20.33;15.57;;;;;;;;;;5046979;28;20044;-71
2022/06/01 06:04:00;;;;;;;17.67;12.43;;;;;;;;;;5033233;28;20048;-70
2022/06/01 06:06:26;;;;;;;15.32;11.95;;;;;;;;;;5051167;28;20037;-69
2022/06/01 06:08:52;;;;;;;13.73;12.23;;;;;;;;;;5052187;28;20036;-67
2022/06/01 06:11:19;;;;;;;14.30;11.57;;;12.50;99.90;;;;;;5058554;28;20093;-68
2022/06/01 06:13:45;;;;;;;17.75;12.35;;;;;;;;;;5060819;28;20127;-69
2022/06/01 06:16:14;;;;;;;16.42;13.55;;;12.50;99.90;;;;;;5082557;28;20040;-69
2022/06/01 06:18:42;;;;;;;17.73;11.88;;;12.80;99.90;;;;;;5063836;28;20498;-69
2022/06/01 06:21:08;;;;;;;15.32;12.57;;;;;;;;;;5041705;28;20040;-68
2022/06/01 06:23:34;;;;;;;17.42;12.75;;;;;;;;;;5038612;28;20047;-68
2022/06/01 06:26:01;;;;;;;15.45;12.38;;;;;;;;;;5069873;28;20037;-69
2022/06/01 06:28:27;;;;;;;14.77;11.48;;;;;;;;;;5043302;28;20486;-69
2022/06/01 06:30:54;;;;;;;14.18;12.27;;;;;;;;;;5046304;28;20075;-69
2022/06/01 06:33:19;;;;;;;16.05;12.88;;;13.20;99.90;;;;;;5056589;28;20045;-69
2022/06/01 06:35:45;;;;;;;18.27;14.57;;;13.10;99.90;;;;;;5056517;28;20043;-68
2022/06/01 06:38:11;;;;;;;21.33;14.45;;;;;;;;;;5074520;28;20024;-68
2022/06/01 06:40:38;;;;;;;20.48;14.93;;;13.30;99.90;;;;;;5055897;28;20041;-68
2022/06/01 06:43:04;;;;;;;15.93;13.20;;;13.20;99.90;;;;;;5056360;28;20090;-68
2022/06/01 06:45:30;;;;;;;14.23;11.90;;;13.30;99.90;;;;;;5055452;28;20044;-68
2022/06/01 06:47:56;;;;;;;15.55;12.70;;;13.20;99.90;;;;;;5057618;28;20040;-68
2022/06/01 06:50:23;;;;;;;12.73;10.68;;;;;;;;;;5073593;28;20044;-68
2022/06/01 06:52:48;;;;;;;16.77;12.32;;;13.20;99.90;;;;;;5056289;28;20041;-68
2022/06/01 06:55:14;;;;;;;16.73;12.18;;;13.30;99.90;;;;;;5056442;28;20123;-68
2022/06/01 06:57:41;;;;;;;18.20;13.00;;;;;;;;;;5072822;28;20036;-68
2022/06/01 07:00:09;;;;;;;15.85;13.70;;;13.30;99.90;;;;;;5073608;28;20387;-68
2022/06/01 07:02:35;;;;;;;16.90;14.40;;;13.20;99.90;;;;;;5056077;28;20048;-68
2022/06/01 07:05:03;;;;;;;14.75;12.18;;;13.30;99.90;;;;;;5074169;28;20039;-68
2022/06/01 07:07:28;;;;;;;14.60;12.68;;;13.30;99.90;;;;;;5056191;28;20531;-67
2022/06/01 07:09:54;;;;;;;16.95;13.93;;;;;;;;;;5055164;28;20072;-67
2022/06/01 07:12:20;;;;;;;17.73;13.90;;;;;;;;;;5055712;28;20085;-68
2022/06/01 07:14:46;;;;;;;16.67;12.88;;;;;;;;;;5055855;28;20119;-68
2022/06/01 07:17:12;;;;;;;18.83;13.48;;;;;;;;;;5039036;28;20040;-69
2022/06/01 07:19:38;;;;;;;16.48;13.07;;;;;;;;;;5055209;28;20048;-69
2022/06/01 07:22:04;;;;;;;15.25;13.55;;;13.50;99.90;;;;;;5055235;28;20037;-69
2022/06/01 07:24:30;;;;;;;13.10;11.57;;;13.80;99.90;;;;;;5050857;28;20048;-67
2022/06/01 07:26:55;;;;;;;18.90;13.60;;;13.70;99.90;;;;;;5073151;28;20036;-67
2022/06/01 07:29:22;;;;;;;15.95;14.13;;;;;;;;;;5072743;28;20115;-67
2022/06/01 07:31:50;;;;;;;16.02;12.50;;;13.70;99.90;;;;;;5055260;28;20048;-68
2022/06/01 07:34:16;;;;;;;19.38;14.13;;;13.60;99.90;;;;;;5055344;28;20040;-68
2022/06/01 07:36:43;;;;;;;16.30;12.55;;;;;;;;;;5054748;28;20045;-67
2022/06/01 07:44:49;;;;;;;15.88;13.07;;;14.20;99.90;;;;;;5055047;28;20056;-74
2022/06/01 07:47:16;;;;;;;17.10;12.38;;;14.50;99.90;;;;;;5054858;28;20059;-68
2022/06/01 07:49:42;;;;;;;15.07;13.07;;;14.50;99.90;;;;;;5054473;28;20040;-68
2022/06/01 07:52:09;;;;;;;15.18;13.57;;;14.80;99.90;;;;;;5072819;28;20776;-68
2022/06/01 07:54:37;;;;;;;17.83;13.30;;;14.60;99.90;;;;;;5054242;28;20044;-71
2022/06/01 07:57:03;;;;;;;15.10;11.88;;;;;;;;;;5044194;28;20040;-71
2022/06/01 07:59:29;;;;;;;13.35;10.90;;;;;;;;;;5054000;28;20036;-68
2022/06/01 08:01:54;;;;;;;13.40;11.40;;;14.80;99.90;;;;;;5072723;28;20047;-68
2022/06/01 08:04:20;;;;;;;13.65;12.15;;;15.00;99.90;;;;;;5038187;28;20036;-68
2022/06/01 08:06:46;;;;;;;15.18;12.07;;;14.90;99.90;;;;;;5054751;28;20071;-68
2022/06/01 08:09:13;;;;;;;15.18;11.00;;;14.50;99.90;;;;;;5071791;28;20418;-69
2022/06/01 08:14:23;;;;;;;12.45;9.75;;;;;;;;;;5059251;28;20411;-68
2022/06/01 08:16:49;;;;;;;12.07;9.30;;;14.70;99.90;;;;;;5017869;28;20518;-68
2022/06/01 08:19:16;;;;;;;10.25;7.93;;;14.80;99.90;;;;;;5052039;28;20040;-69
2022/06/01 08:21:42;;;;;;;10.80;8.80;;;14.70;99.90;;;;;;5054706;28;20398;-69
2022/06/01 08:24:09;;;;;;;10.38;7.68;;;;;;;;;;5072320;28;20036;-69
2022/06/01 08:26:35;;;;;;;8.90;7.88;;;15.00;99.90;;;;;;5054288;28;20048;-70
2022/06/01 08:29:02;;;;;;;10.85;8.07;;;15.00;99.90;;;;;;5053757;28;20040;-68
2022/06/01 08:31:29;;;;;;;10.10;7.05;;;14.90;99.90;;;;;;5037157;28;20520;-69
2022/06/01 08:33:56;;;;;;;9.80;6.53;;;15.00;99.90;;;;;;5072308;28;20044;-69
2022/06/01 08:36:22;;;;;;;7.80;7.00;;;14.90;99.90;;;;;;5072040;28;20079;-69
2022/06/01 08:38:48;;;;;;;9.25;6.60;;;14.90;99.90;;;;;;5053421;28;20587;-69
2022/06/01 08:41:17;;;;;;;8.52;6.82;;;14.90;99.90;;;;;;5053794;28;20094;-69
2022/06/01 08:43:49;;;;;;;7.00;6.30;;;15.30;99.90;;;;;;5053463;28;20059;-69
2022/06/01 08:46:15;;;;;;;7.55;6.47;;;15.60;99.90;;;;;;5067862;28;20050;-69
2022/06/01 08:48:48;;;;;;;7.75;6.85;;;15.50;99.90;;;;;;5034065;28;20040;-70
2022/06/01 08:51:16;;;;;;;7.38;6.35;;;15.80;99.90;;;;;;5068818;28;20066;-70
2022/06/01 08:53:41;;;;;;;7.82;6.63;;;16.10;99.90;;;;;;5048018;28;20037;-70
2022/06/01 08:56:13;;;;;;;5.20;4.70;;;16.10;99.90;;;;;;5034918;28;20049;-70
2022/06/01 08:59:03;;;;;;;6.50;5.13;;;16.00;99.90;;;;;;5069894;28;20040;-71
2022/06/01 09:01:56;;;;;;;6.10;5.38;;;15.60;99.90;;;;;;5048767;28;20074;-71
2022/06/01 09:05:04;;;;;;;5.87;5.23;;;15.40;99.90;;;;;;5051678;28;20040;-70
2022/06/01 09:07:40;;;;;;;7.70;6.07;;;15.50;99.90;;;;;;5033600;28;20319;-71
2022/06/01 09:10:09;;;;;;;6.70;5.75;;;15.20;99.90;;;;;;5063936;28;20406;-70
2022/06/01 09:12:36;;;;;;;7.18;5.50;;;15.40;99.90;;;;;;5068955;28;20048;-70
2022/06/01 09:15:38;;;;;;;7.72;5.25;;;15.30;99.90;;;;;;5079816;28;20044;-71
2022/06/01 09:18:04;;;;;;;9.32;6.00;;;15.20;99.90;;;;;;5042910;28;20097;-70
2022/06/01 09:23:16;;;;;;;5.70;4.88;;;16.50;99.90;;;;;;5052349;28;20478;-68
2022/06/01 09:25:51;;;;;;;7.07;5.35;;;15.80;99.90;;;;;;5051355;28;20071;-68
2022/06/01 09:28:28;;;;;;;5.50;4.75;;;15.70;99.90;;;;;;5055794;28;20517;-68
2022/06/01 09:31:07;;;;;;;4.57;4.18;;;15.80;99.90;;;;;;5051289;28;20033;-68
2022/06/01 09:33:37;;;;;;;8.25;4.70;;;16.00;99.90;;;;;;5068783;28;20474;-69
2022/06/01 09:36:03;;;;;;;7.00;5.30;;;15.80;99.90;;;;;;5051790;28;20126;-68
2022/06/01 09:38:51;;;;;;;6.38;4.70;;;15.90;99.90;;;;;;5066856;28;20120;-68
2022/06/01 09:41:21;;;;;;;5.30;4.80;;;15.90;99.90;;;;;;5052089;28;20490;-69
2022/06/01 09:43:57;;;;;;;5.88;4.28;;;15.80;99.90;;;;;;5069042;28;20040;-70
2022/06/01 09:46:37;;;;;;;5.32;4.30;;;15.40;99.90;;;;;;5048787;28;20153;-70
2022/06/01 09:49:24;;;;;;;3.17;2.88;;;15.50;99.90;;;;;;5066885;28;20044;-72
2022/06/01 09:51:55;;;;;;;4.05;3.33;;;15.70;99.90;;;;;;5050697;28;20079;-71
2022/06/01 09:54:21;;;;;;;4.97;4.32;;;15.40;99.90;;;;;;5049116;28;20049;-71
2022/06/01 09:56:48;;;;;;;3.25;2.95;;;15.20;99.90;;;;;;5050480;28;20131;-71
2022/06/01 10:07:46;;;;;;;3.92;3.40;;;14.30;99.90;;;;;;5068568;28;20068;-71
2022/06/01 10:10:25;;;;;;;6.65;3.80;;;14.20;99.90;;;;;;5049577;28;20313;-71
2022/06/01 10:12:54;;;;;;;4.68;3.65;;;14.20;99.90;;;;;;5033253;28;20064;-71
2022/06/01 10:15:30;;;;;;;3.30;3.00;;;14.30;99.90;;;;;;5047913;28;20490;-71
2022/06/01 10:18:02;;;;;;;3.45;3.15;;;14.10;99.90;;;;;;5051629;28;20086;-73
2022/06/01 10:20:33;;;;;;;5.60;3.55;;;14.10;99.90;;;;;;5052142;28;20072;-71
2022/06/01 10:22:59;;;;;;;3.90;3.17;;;;;;;;;;5054733;28;20036;-71
2022/06/01 10:25:31;;;;;;;3.38;3.00;;;14.10;99.90;;;;;;5072806;28;20127;-72
2022/06/01 10:28:06;;;;;;;2.83;2.30;;;14.40;99.90;;;;;;5036636;28;20085;-72
2022/06/01 10:30:37;;;;;;;3.28;2.97;;;14.40;99.90;;;;;;5072966;28;20044;-71
2022/06/01 10:33:12;;;;;;;5.95;2.80;;;14.40;99.90;;;;;;5068094;28;20040;-72
2022/06/01 10:35:44;;;;;;;2.17;1.90;;;14.50;99.90;;;;;;5072665;28;20051;-71
2022/06/01 10:38:18;;;;;;;2.25;1.73;;;14.40;99.90;;;;;;5053331;28;20041;-71
2022/06/01 10:40:56;;;;;;;2.38;1.50;;;14.40;99.90;;;;;;5052517;28;20044;-72
2022/06/01 10:43:38;;;;;;;1.65;1.35;;;14.70;99.90;;;;;;5053701;28;20086;-72
2022/06/01 10:46:13;;;;;;;0.90;0.90;;;14.90;99.90;;;;;;5053480;28;20044;-72
2022/06/01 10:48:48;;;;;;;1.55;1.00;;;15.30;99.90;;;;;;5053964;28;20048;-72
2022/06/01 10:51:27;;;;;;;2.72;0.90;;;15.30;99.90;;;;;;5053106;28;20086;-71
2022/06/01 10:54:14;;;;;;;1.05;0.70;;;15.60;99.90;;;;;;5054427;28;20040;-70
2022/06/01 10:56:41;;;;;;;2.22;0.60;;;;;;;;;;5047985;28;20590;-71
2022/06/01 10:59:11;;;;;;;1.40;0.70;;;15.70;99.90;;;;;;5068542;28;20414;-70
2022/06/01 11:02:01;;;;;;;0.80;0.80;;;15.70;99.90;;;;;;5051917;28;20055;-71
2022/06/01 11:05:00;;;;;;;1.08;0.80;;;16.20;99.90;;;;;;5050513;28;20040;-71
2022/06/01 11:07:49;;;;;;;1.58;0.93;;;16.80;99.90;;;;;;5048439;28;20052;-70
2022/06/01 11:10:57;;;;;;;2.45;1.00;;;16.70;99.90;;;;;;5069829;28;20076;-71
2022/06/01 11:13:22;;;;;;;1.38;1.20;;;16.40;99.90;;;;;;5048512;28;20079;-71
2022/06/01 11:16:31;;;;;;;4.75;2.63;;;16.50;99.90;;;;;;5052932;28;20123;-70
2022/06/01 11:19:02;;;;;;;6.68;2.80;;;16.10;99.90;;;;;;5059948;28;20165;-70
2022/06/01 11:22:02;;;;;;;2.80;2.00;;;16.20;99.90;;;;;;5039113;28;20037;-71
2022/06/01 11:24:54;;;;;;;2.60;1.63;;;15.00;99.90;;;;;;5043451;28;20036;-67
2022/06/01 11:27:38;;;;;;;2.95;1.60;;;14.50;99.90;;;;;;5080793;28;20059;-69
2022/06/01 11:30:14;;;;;;;2.55;2.08;;;14.00;99.90;;;;;;5036894;28;20037;-69
2022/06/01 11:33:15;;;;;;;2.25;1.63;;;13.90;99.90;;;;;;5052970;28;20410;-69
2022/06/01 11:35:57;;;;;;;4.40;3.00;;;13.90;99.90;;;;;;5006644;28;20057;-69
2022/06/01 11:38:39;;;;;;;4.88;1.80;;;13.60;99.90;;;;;;5053439;28;20099;-69
2022/06/01 11:41:11;;;;;;;3.70;1.73;;;13.30;99.90;;;;;;5053592;28;20036;-69
2022/06/01 11:43:55;;;;;;;4.32;1.52;;;13.00;99.90;;;;;;5070884;28;20032;-69
2022/06/01 11:46:37;;;;;;;2.90;1.17;;;13.30;99.90;;;;;;5071273;28;20068;-69
2022/06/01 11:49:24;;;;;;;1.38;1.00;;;13.00;99.90;;;;;;5069995;28;20478;-69
2022/06/01 11:51:50;;;;;;;2.67;1.52;;;13.20;99.90;;;;;;5070618;28;20119;-70
2022/06/01 11:54:36;;;;;;;1.70;1.00;;;13.20;99.90;;;;;;5030818;28;20515;-70
2022/06/01 11:57:23;;;;;;;2.63;1.50;;;13.00;99.90;;;;;;5069444;28;20036;-69
2022/06/01 12:00:04;;;;;;;1.48;0.98;;;12.80;99.90;;;;;;5069396;28;20036;-69
2022/06/01 12:02:44;;;;;;;2.22;1.20;;;;;;;;;;5047431;28;20119;-71
2022/06/01 12:05:30;;;;;;;5.07;3.15;;;12.70;99.90;;;;;;5071144;28;20048;-69
2022/06/01 12:08:16;;;;;;;3.97;2.80;;;13.10;99.90;;;;;;5052304;28;20473;-69
2022/06/01 12:10:55;;;;;;;4.55;1.88;;;13.10;99.90;;;;;;5048960;28;20047;-69
2022/06/01 12:13:49;;;;;;;2.67;1.40;;;12.70;99.90;;;;;;5051601;28;20036;-69
2022/06/01 12:16:27;;;;;;;2.55;1.25;;;13.00;99.90;;;;;;5068450;28;20045;-69
2022/06/01 12:19:11;;;;;;;4.20;1.42;;;13.20;99.90;;;;;;5052761;28;20093;-68
2022/06/01 12:21:42;;;;;;;1.95;1.67;;;13.00;99.90;;;;;;5068608;28;20076;-68
2022/06/01 12:30:01;;;;;;;3.33;2.88;;;13.50;99.90;;;;;;5051497;28;20048;-69
2022/06/01 12:32:28;;;;;;;4.30;3.17;;;14.10;99.90;;;;;;5051273;28;20046;-69
2022/06/01 12:35:09;;;;;;;3.95;3.28;;;14.60;99.90;;;;;;5052322;28;20047;-69
2022/06/01 12:38:03;;;;;;;4.88;2.78;;;15.10;99.90;;;;;;5070371;28;20107;-69
2022/06/01 12:40:29;;;;;;;3.70;2.58;;;14.90;99.90;;;;;;5031832;28;20514;-69
2022/06/01 12:42:58;;;;;;;2.50;2.30;;;15.10;99.90;;;;;;5051988;28;20048;-69
2022/06/01 12:45:35;;;;;;;2.35;1.80;;;14.90;99.90;;;;;;5051838;28;20035;-69
2022/06/01 12:48:13;;;;;;;2.50;2.10;;;14.90;99.90;;;;;;5081457;22;20226;-78
2022/06/01 12:50:49;;;;;;;2.67;2.25;;;14.80;99.90;;;;;;5048812;28;20042;-79
2022/06/01 12:53:20;;;;;;;3.47;2.80;;;14.90;99.90;;;;;;5037683;28;20648;-78
2022/06/01 12:55:47;;;;;;;4.03;2.90;;;14.80;99.90;;;;;;5059810;28;20403;-79
2022/06/01 12:58:21;;;;;;;2.88;2.13;;;14.80;99.90;;;;;;5037678;28;20033;-79
2022/06/01 13:00:55;;;;;;;2.53;1.90;;;15.30;99.90;;;;;;5053679;28;20064;-79
2022/06/01 13:03:26;;;;;;;3.08;2.33;;;15.80;99.90;;;;;;5049701;28;20033;-79
2022/06/01 13:05:56;;;;;;;3.08;2.50;;;15.70;99.90;;;;;;5024858;28;20048;-79
2022/06/01 13:08:28;;;;;;;3.33;2.55;;;16.00;99.90;;;;;;5044002;28;20075;-78
2022/06/01 13:10:55;;;;;;;2.57;2.33;;;16.30;99.90;;;;;;5054850;28;20049;-79
2022/06/01 13:13:27;;;;;;;3.75;2.60;;;16.20;99.90;;;;;;5037805;28;20498;-79
2022/06/01 13:16:02;;;;;;;3.30;2.63;;;16.60;99.90;;;;;;5046291;28;20055;-79
2022/06/01 13:18:35;;;;;;;7.15;4.55;;;17.10;99.90;;;;;;5062066;28;20040;-79
2022/06/01 13:21:05;;;;;;;2.40;1.75;;;16.80;99.90;;;;;;5061910;28;20048;-79
2022/06/01 13:23:41;;;;;;;2.08;1.88;;;17.30;99.90;;;;;;5045322;28;20115;-79
2022/06/01 13:26:10;;;;;;;2.35;2.15;;;16.80;99.90;;;;;;5043202;28;20043;-78
2022/06/01 13:28:35;;;;;;;2.75;2.53;;;16.60;99.90;;;;;;5026705;28;20048;-78
2022/06/01 13:31:01;;;;;;;2.60;2.08;;;16.50;99.90;;;;;;5044959;28;20483;-78
2022/06/01 13:33:35;;;;;;;3.42;2.00;;;16.00;99.90;;;;;;5058558;28;20041;-77
2022/06/01 13:36:04;;;;;;;4.30;2.00;;;15.60;99.90;;;;;;5030120;28;20041;-78
2022/06/01 13:38:49;;;;;;;2.00;1.48;;;15.30;99.90;;;;;;5040784;28;20044;-77
2022/06/01 13:41:20;;;;;;;2.38;1.80;;;15.20;99.90;;;;;;5022830;28;20079;-78
2022/06/01 13:43:48;;;;;;;2.22;1.92;;;14.70;99.90;;;;;;5021652;28;20036;-77
2022/06/01 13:46:36;;;;;;;3.65;2.00;;;14.80;99.90;;;;;;5050182;28;20192;-77
2022/06/01 13:49:04;;;;;;;5.38;2.60;;;14.80;99.90;;;;;;5026594;28;20056;-78
2022/06/01 13:51:58;;;;;;;3.35;2.63;;;14.90;99.90;;;;;;5040436;28;20071;-78
2022/06/01 13:54:29;;;;;;;4.40;3.47;;;14.90;99.90;;;;;;5048445;28;20110;-78